sensor_id;sensor_type;location;lat;lon;timestamp;P1;durP1;ratioP1;P2;durP2;ratioP2
48945;SDS011;34999;50.940;3.998;2023-04-24T00:00:02;30.30;;;14.53;;
48945;SDS011;34999;50.940;3.998;2023-04-24T00:02:32;25.27;;;15.20;;
48945;SDS011;34999;50.940;3.998;2023-04-24T00:05:01;28.83;;;14.43;;
48945;SDS011;34999;50.940;3.998;2023-04-24T00:07:31;23.63;;;14.07;;
48945;SDS011;34999;50.940;3.998;2023-04-24T00:09:59;27.40;;;14.10;;
48945;SDS011;34999;50.940;3.998;2023-04-24T00:12:27;26.33;;;13.60;;
48945;SDS011;34999;50.940;3.998;2023-04-24T00:14:57;24.87;;;15.00;;
48945;SDS011;34999;50.940;3.998;2023-04-24T00:17:25;25.57;;;14.10;;
48945;SDS011;34999;50.940;3.998;2023-04-24T00:19:54;25.03;;;14.40;;
48945;SDS011;34999;50.940;3.998;2023-04-24T00:22:25;24.67;;;15.17;;
48945;SDS011;34999;50.940;3.998;2023-04-24T00:24:53;26.37;;;14.03;;
48945;SDS011;34999;50.940;3.998;2023-04-24T00:27:22;26.90;;;13.90;;
48945;SDS011;34999;50.940;3.998;2023-04-24T00:29:50;24.37;;;14.03;;
48945;SDS011;34999;50.940;3.998;2023-04-24T00:32:20;28.37;;;14.73;;
48945;SDS011;34999;50.940;3.998;2023-04-24T00:34:48;29.47;;;15.67;;
48945;SDS011;34999;50.940;3.998;2023-04-24T00:37:16;24.97;;;13.70;;
48945;SDS011;34999;50.940;3.998;2023-04-24T00:39:45;26.53;;;13.93;;
48945;SDS011;34999;50.940;3.998;2023-04-24T00:42:13;25.63;;;14.60;;
48945;SDS011;34999;50.940;3.998;2023-04-24T00:44:41;29.43;;;15.07;;
48945;SDS011;34999;50.940;3.998;2023-04-24T00:47:10;30.40;;;13.97;;
48945;SDS011;34999;50.940;3.998;2023-04-24T00:49:42;30.67;;;15.17;;
48945;SDS011;34999;50.940;3.998;2023-04-24T00:52:10;30.87;;;15.00;;
48945;SDS011;34999;50.940;3.998;2023-04-24T00:54:43;25.00;;;14.43;;
48945;SDS011;34999;50.940;3.998;2023-04-24T00:57:12;24.93;;;15.50;;
48945;SDS011;34999;50.940;3.998;2023-04-24T00:59:42;26.50;;;14.93;;
48945;SDS011;34999;50.940;3.998;2023-04-24T01:05:11;25.77;;;13.50;;
48945;SDS011;34999;50.940;3.998;2023-04-24T01:07:41;19.80;;;12.87;;
48945;SDS011;34999;50.940;3.998;2023-04-24T01:10:12;29.43;;;13.37;;
48945;SDS011;34999;50.940;3.998;2023-04-24T01:12:41;19.03;;;12.20;;
48945;SDS011;34999;50.940;3.998;2023-04-24T01:15:10;21.27;;;12.00;;
48945;SDS011;34999;50.940;3.998;2023-04-24T01:17:39;17.93;;;10.77;;
48945;SDS011;34999;50.940;3.998;2023-04-24T01:20:08;21.47;;;11.87;;
48945;SDS011;34999;50.940;3.998;2023-04-24T01:22:38;18.83;;;10.07;;
48945;SDS011;34999;50.940;3.998;2023-04-24T01:25:07;15.63;;;9.97;;
48945;SDS011;34999;50.940;3.998;2023-04-24T01:27:36;13.43;;;10.00;;
48945;SDS011;34999;50.940;3.998;2023-04-24T01:30:05;14.50;;;9.57;;
48945;SDS011;34999;50.940;3.998;2023-04-24T01:32:34;12.60;;;9.10;;
48945;SDS011;34999;50.940;3.998;2023-04-24T01:35:04;10.60;;;8.77;;
48945;SDS011;34999;50.940;3.998;2023-04-24T01:37:33;11.17;;;8.30;;
48945;SDS011;34999;50.940;3.998;2023-04-24T01:40:05;10.93;;;8.30;;
48945;SDS011;34999;50.940;3.998;2023-04-24T01:42:35;8.67;;;7.47;;
48945;SDS011;34999;50.940;3.998;2023-04-24T01:45:03;10.20;;;7.83;;
48945;SDS011;34999;50.940;3.998;2023-04-24T01:47:32;10.23;;;8.27;;
48945;SDS011;34999;50.940;3.998;2023-04-24T01:50:01;9.93;;;8.37;;
48945;SDS011;34999;50.940;3.998;2023-04-24T01:52:30;13.73;;;9.63;;
48945;SDS011;34999;50.940;3.998;2023-04-24T01:54:59;18.17;;;10.40;;
48945;SDS011;34999;50.940;3.998;2023-04-24T01:57:29;13.57;;;9.87;;
48945;SDS011;34999;50.940;3.998;2023-04-24T01:59:58;17.90;;;10.80;;
48945;SDS011;34999;50.940;3.998;2023-04-24T02:02:26;15.83;;;11.33;;
48945;SDS011;34999;50.940;3.998;2023-04-24T02:04:55;16.53;;;11.73;;
48945;SDS011;34999;50.940;3.998;2023-04-24T02:07:24;22.53;;;12.77;;
48945;SDS011;34999;50.940;3.998;2023-04-24T02:09:52;17.57;;;12.13;;
48945;SDS011;34999;50.940;3.998;2023-04-24T02:12:22;18.57;;;12.33;;
48945;SDS011;34999;50.940;3.998;2023-04-24T02:14:51;18.97;;;13.07;;
48945;SDS011;34999;50.940;3.998;2023-04-24T02:17:22;20.53;;;13.17;;
48945;SDS011;34999;50.940;3.998;2023-04-24T02:19:50;22.70;;;13.80;;
48945;SDS011;34999;50.940;3.998;2023-04-24T02:22:19;20.70;;;13.17;;
48945;SDS011;34999;50.940;3.998;2023-04-24T02:24:49;20.00;;;13.63;;
48945;SDS011;34999;50.940;3.998;2023-04-24T02:27:17;23.27;;;13.13;;
48945;SDS011;34999;50.940;3.998;2023-04-24T02:29:45;17.70;;;12.47;;
48945;SDS011;34999;50.940;3.998;2023-04-24T02:32:15;22.00;;;12.90;;
48945;SDS011;34999;50.940;3.998;2023-04-24T02:34:43;19.30;;;13.03;;
48945;SDS011;34999;50.940;3.998;2023-04-24T02:37:11;20.13;;;13.83;;
48945;SDS011;34999;50.940;3.998;2023-04-24T02:39:40;19.77;;;12.37;;
48945;SDS011;34999;50.940;3.998;2023-04-24T02:42:09;23.50;;;12.73;;
48945;SDS011;34999;50.940;3.998;2023-04-24T02:44:37;20.97;;;13.07;;
48945;SDS011;34999;50.940;3.998;2023-04-24T02:47:05;21.30;;;12.30;;
48945;SDS011;34999;50.940;3.998;2023-04-24T02:49:38;21.23;;;12.17;;
48945;SDS011;34999;50.940;3.998;2023-04-24T02:52:07;18.53;;;11.87;;
48945;SDS011;34999;50.940;3.998;2023-04-24T02:54:35;18.30;;;12.30;;
48945;SDS011;34999;50.940;3.998;2023-04-24T02:57:05;19.63;;;12.13;;
48945;SDS011;34999;50.940;3.998;2023-04-24T02:59:33;15.07;;;11.27;;
48945;SDS011;34999;50.940;3.998;2023-04-24T03:02:01;15.40;;;11.30;;
48945;SDS011;34999;50.940;3.998;2023-04-24T03:04:30;17.87;;;11.07;;
48945;SDS011;34999;50.940;3.998;2023-04-24T03:07:00;13.73;;;10.30;;
48945;SDS011;34999;50.940;3.998;2023-04-24T03:09:28;14.03;;;11.13;;
48945;SDS011;34999;50.940;3.998;2023-04-24T03:11:57;15.50;;;11.10;;
48945;SDS011;34999;50.940;3.998;2023-04-24T03:14:25;20.87;;;15.43;;
48945;SDS011;34999;50.940;3.998;2023-04-24T03:16:53;13.87;;;11.07;;
48945;SDS011;34999;50.940;3.998;2023-04-24T03:19:22;14.10;;;11.50;;
48945;SDS011;34999;50.940;3.998;2023-04-24T03:21:50;15.77;;;11.20;;
48945;SDS011;34999;50.940;3.998;2023-04-24T03:24:20;13.80;;;9.70;;
48945;SDS011;34999;50.940;3.998;2023-04-24T03:26:49;13.23;;;9.60;;
48945;SDS011;34999;50.940;3.998;2023-04-24T03:29:17;16.57;;;9.83;;
48945;SDS011;34999;50.940;3.998;2023-04-24T03:31:45;15.70;;;10.03;;
48945;SDS011;34999;50.940;3.998;2023-04-24T03:34:13;13.77;;;9.00;;
48945;SDS011;34999;50.940;3.998;2023-04-24T03:36:42;12.13;;;9.27;;
48945;SDS011;34999;50.940;3.998;2023-04-24T03:39:10;13.13;;;9.63;;
48945;SDS011;34999;50.940;3.998;2023-04-24T03:41:40;12.97;;;9.10;;
48945;SDS011;34999;50.940;3.998;2023-04-24T03:44:08;12.80;;;9.07;;
48945;SDS011;34999;50.940;3.998;2023-04-24T03:46:36;16.07;;;9.17;;
48945;SDS011;34999;50.940;3.998;2023-04-24T03:49:05;12.20;;;8.27;;
48945;SDS011;34999;50.940;3.998;2023-04-24T03:51:33;16.37;;;9.20;;
48945;SDS011;34999;50.940;3.998;2023-04-24T03:54:01;9.77;;;7.67;;
48945;SDS011;34999;50.940;3.998;2023-04-24T03:56:30;11.87;;;7.93;;
48945;SDS011;34999;50.940;3.998;2023-04-24T03:59:00;11.67;;;7.97;;
48945;SDS011;34999;50.940;3.998;2023-04-24T04:01:28;17.13;;;8.83;;
48945;SDS011;34999;50.940;3.998;2023-04-24T04:03:57;16.47;;;9.17;;
48945;SDS011;34999;50.940;3.998;2023-04-24T04:06:28;18.67;;;9.80;;
48945;SDS011;34999;50.940;3.998;2023-04-24T04:08:57;13.60;;;9.47;;
48945;SDS011;34999;50.940;3.998;2023-04-24T04:11:25;15.53;;;10.07;;
48945;SDS011;34999;50.940;3.998;2023-04-24T04:13:54;16.70;;;11.13;;
48945;SDS011;34999;50.940;3.998;2023-04-24T04:16:25;19.07;;;11.40;;
48945;SDS011;34999;50.940;3.998;2023-04-24T04:18:53;22.23;;;12.10;;
48945;SDS011;34999;50.940;3.998;2023-04-24T04:21:22;18.87;;;11.27;;
48945;SDS011;34999;50.940;3.998;2023-04-24T04:23:50;19.20;;;12.27;;
48945;SDS011;34999;50.940;3.998;2023-04-24T04:26:18;25.00;;;13.23;;
48945;SDS011;34999;50.940;3.998;2023-04-24T04:28:47;26.57;;;15.73;;
48945;SDS011;34999;50.940;3.998;2023-04-24T04:31:16;38.43;;;20.43;;
48945;SDS011;34999;50.940;3.998;2023-04-24T04:33:46;31.77;;;16.17;;
48945;SDS011;34999;50.940;3.998;2023-04-24T04:36:14;35.07;;;17.63;;
48945;SDS011;34999;50.940;3.998;2023-04-24T04:38:44;30.63;;;15.37;;
48945;SDS011;34999;50.940;3.998;2023-04-24T04:41:13;26.50;;;14.13;;
48945;SDS011;34999;50.940;3.998;2023-04-24T04:43:43;33.00;;;15.70;;
48945;SDS011;34999;50.940;3.998;2023-04-24T04:46:12;30.27;;;14.73;;
48945;SDS011;34999;50.940;3.998;2023-04-24T04:48:41;24.20;;;13.60;;
48945;SDS011;34999;50.940;3.998;2023-04-24T04:51:10;28.50;;;13.43;;
48945;SDS011;34999;50.940;3.998;2023-04-24T04:53:39;23.30;;;14.20;;
48945;SDS011;34999;50.940;3.998;2023-04-24T04:56:07;25.80;;;14.30;;
48945;SDS011;34999;50.940;3.998;2023-04-24T04:58:35;23.53;;;13.93;;
48945;SDS011;34999;50.940;3.998;2023-04-24T05:01:04;27.80;;;13.40;;
48945;SDS011;34999;50.940;3.998;2023-04-24T05:03:35;27.70;;;13.80;;
48945;SDS011;34999;50.940;3.998;2023-04-24T05:06:04;25.70;;;14.30;;
48945;SDS011;34999;50.940;3.998;2023-04-24T05:08:34;28.93;;;13.97;;
48945;SDS011;34999;50.940;3.998;2023-04-24T05:11:02;23.20;;;13.53;;
48945;SDS011;34999;50.940;3.998;2023-04-24T05:13:30;24.43;;;13.90;;
48945;SDS011;34999;50.940;3.998;2023-04-24T05:16:06;26.47;;;13.60;;
48945;SDS011;34999;50.940;3.998;2023-04-24T05:18:37;23.60;;;13.47;;
48945;SDS011;34999;50.940;3.998;2023-04-24T05:21:05;32.90;;;13.97;;
48945;SDS011;34999;50.940;3.998;2023-04-24T05:23:35;25.60;;;14.63;;
48945;SDS011;34999;50.940;3.998;2023-04-24T05:26:03;29.57;;;13.43;;
48945;SDS011;34999;50.940;3.998;2023-04-24T05:28:33;24.37;;;14.10;;
48945;SDS011;34999;50.940;3.998;2023-04-24T05:31:03;27.10;;;14.33;;
48945;SDS011;34999;50.940;3.998;2023-04-24T05:33:31;25.77;;;14.10;;
48945;SDS011;34999;50.940;3.998;2023-04-24T05:36:00;19.33;;;12.97;;
48945;SDS011;34999;50.940;3.998;2023-04-24T05:38:28;30.27;;;15.10;;
48945;SDS011;34999;50.940;3.998;2023-04-24T05:40:57;27.33;;;15.07;;
48945;SDS011;34999;50.940;3.998;2023-04-24T05:43:26;26.00;;;13.57;;
48945;SDS011;34999;50.940;3.998;2023-04-24T05:45:54;31.80;;;15.07;;
48945;SDS011;34999;50.940;3.998;2023-04-24T05:48:22;26.40;;;14.00;;
48945;SDS011;34999;50.940;3.998;2023-04-24T05:50:50;28.77;;;14.40;;
48945;SDS011;34999;50.940;3.998;2023-04-24T05:53:19;25.53;;;13.83;;
48945;SDS011;34999;50.940;3.998;2023-04-24T05:55:48;21.73;;;14.30;;
48945;SDS011;34999;50.940;3.998;2023-04-24T05:58:17;29.43;;;15.07;;
48945;SDS011;34999;50.940;3.998;2023-04-24T06:00:45;29.47;;;15.33;;
48945;SDS011;34999;50.940;3.998;2023-04-24T06:03:14;25.73;;;14.57;;
48945;SDS011;34999;50.940;3.998;2023-04-24T06:05:42;38.17;;;15.57;;
48945;SDS011;34999;50.940;3.998;2023-04-24T06:08:11;33.60;;;16.43;;
48945;SDS011;34999;50.940;3.998;2023-04-24T06:10:39;35.37;;;16.80;;
48945;SDS011;34999;50.940;3.998;2023-04-24T06:13:07;29.17;;;15.10;;
48945;SDS011;34999;50.940;3.998;2023-04-24T06:15:37;31.83;;;16.60;;
48945;SDS011;34999;50.940;3.998;2023-04-24T06:18:05;30.80;;;15.90;;
48945;SDS011;34999;50.940;3.998;2023-04-24T06:20:34;30.83;;;17.00;;
48945;SDS011;34999;50.940;3.998;2023-04-24T06:23:02;38.97;;;17.27;;
48945;SDS011;34999;50.940;3.998;2023-04-24T06:25:30;32.80;;;17.77;;
48945;SDS011;34999;50.940;3.998;2023-04-24T06:27:58;36.17;;;16.67;;
48945;SDS011;34999;50.940;3.998;2023-04-24T06:30:27;36.70;;;18.17;;
48945;SDS011;34999;50.940;3.998;2023-04-24T06:32:57;35.03;;;17.47;;
48945;SDS011;34999;50.940;3.998;2023-04-24T06:35:44;30.97;;;18.40;;
48945;SDS011;34999;50.940;3.998;2023-04-24T06:38:13;37.00;;;17.67;;
48945;SDS011;34999;50.940;3.998;2023-04-24T06:40:42;40.53;;;18.53;;
48945;SDS011;34999;50.940;3.998;2023-04-24T06:43:10;38.23;;;17.60;;
48945;SDS011;34999;50.940;3.998;2023-04-24T06:45:39;39.80;;;17.50;;
48945;SDS011;34999;50.940;3.998;2023-04-24T06:48:08;36.63;;;17.73;;
48945;SDS011;34999;50.940;3.998;2023-04-24T06:50:37;28.40;;;15.77;;
48945;SDS011;34999;50.940;3.998;2023-04-24T06:53:06;27.30;;;16.07;;
48945;SDS011;34999;50.940;3.998;2023-04-24T06:55:35;32.03;;;15.80;;
48945;SDS011;34999;50.940;3.998;2023-04-24T06:58:03;28.30;;;16.10;;
48945;SDS011;34999;50.940;3.998;2023-04-24T07:00:32;31.57;;;15.23;;
48945;SDS011;34999;50.940;3.998;2023-04-24T07:03:00;28.93;;;13.70;;
48945;SDS011;34999;50.940;3.998;2023-04-24T07:05:30;31.47;;;14.47;;
48945;SDS011;34999;50.940;3.998;2023-04-24T07:08:00;28.50;;;13.83;;
48945;SDS011;34999;50.940;3.998;2023-04-24T07:10:29;29.40;;;14.20;;
48945;SDS011;34999;50.940;3.998;2023-04-24T07:12:57;31.50;;;14.50;;
48945;SDS011;34999;50.940;3.998;2023-04-24T07:15:25;30.13;;;15.50;;
48945;SDS011;34999;50.940;3.998;2023-04-24T07:17:53;34.10;;;15.00;;
48945;SDS011;34999;50.940;3.998;2023-04-24T07:20:22;33.90;;;13.90;;
48945;SDS011;34999;50.940;3.998;2023-04-24T07:22:52;20.90;;;13.00;;
48945;SDS011;34999;50.940;3.998;2023-04-24T07:25:21;24.93;;;13.27;;
48945;SDS011;34999;50.940;3.998;2023-04-24T07:27:49;27.23;;;13.30;;
48945;SDS011;34999;50.940;3.998;2023-04-24T07:30:17;27.73;;;11.73;;
48945;SDS011;34999;50.940;3.998;2023-04-24T07:32:46;25.27;;;11.50;;
48945;SDS011;34999;50.940;3.998;2023-04-24T07:35:14;18.90;;;9.87;;
48945;SDS011;34999;50.940;3.998;2023-04-24T07:37:44;17.30;;;9.40;;
48945;SDS011;34999;50.940;3.998;2023-04-24T07:40:14;20.07;;;9.80;;
48945;SDS011;34999;50.940;3.998;2023-04-24T07:42:43;20.97;;;9.57;;
48945;SDS011;34999;50.940;3.998;2023-04-24T07:45:11;19.77;;;9.87;;
48945;SDS011;34999;50.940;3.998;2023-04-24T07:47:40;23.43;;;10.43;;
48945;SDS011;34999;50.940;3.998;2023-04-24T07:50:10;20.33;;;9.67;;
48945;SDS011;34999;50.940;3.998;2023-04-24T07:52:38;17.23;;;8.77;;
48945;SDS011;34999;50.940;3.998;2023-04-24T07:55:07;16.90;;;8.30;;
48945;SDS011;34999;50.940;3.998;2023-04-24T07:57:36;22.33;;;9.13;;
48945;SDS011;34999;50.940;3.998;2023-04-24T08:00:05;15.97;;;8.97;;
48945;SDS011;34999;50.940;3.998;2023-04-24T08:02:37;19.23;;;8.03;;
48945;SDS011;34999;50.940;3.998;2023-04-24T08:05:06;17.70;;;8.03;;
48945;SDS011;34999;50.940;3.998;2023-04-24T08:07:35;21.47;;;7.83;;
48945;SDS011;34999;50.940;3.998;2023-04-24T08:10:04;14.60;;;7.53;;
48945;SDS011;34999;50.940;3.998;2023-04-24T08:12:33;17.83;;;8.00;;
48945;SDS011;34999;50.940;3.998;2023-04-24T08:15:03;17.03;;;8.23;;
48945;SDS011;34999;50.940;3.998;2023-04-24T08:17:32;15.13;;;7.20;;
48945;SDS011;34999;50.940;3.998;2023-04-24T08:20:01;16.97;;;7.97;;
48945;SDS011;34999;50.940;3.998;2023-04-24T08:22:31;14.97;;;5.97;;
48945;SDS011;34999;50.940;3.998;2023-04-24T08:25:00;15.10;;;6.10;;
48945;SDS011;34999;50.940;3.998;2023-04-24T08:27:28;13.50;;;5.63;;
48945;SDS011;34999;50.940;3.998;2023-04-24T08:29:56;9.97;;;5.40;;
48945;SDS011;34999;50.940;3.998;2023-04-24T08:32:29;11.83;;;4.50;;
48945;SDS011;34999;50.940;3.998;2023-04-24T08:34:57;9.97;;;5.37;;
48945;SDS011;34999;50.940;3.998;2023-04-24T08:37:26;8.43;;;5.00;;
48945;SDS011;34999;50.940;3.998;2023-04-24T08:39:55;8.27;;;4.47;;
48945;SDS011;34999;50.940;3.998;2023-04-24T08:42:23;10.33;;;4.60;;
48945;SDS011;34999;50.940;3.998;2023-04-24T08:44:52;10.77;;;4.27;;
48945;SDS011;34999;50.940;3.998;2023-04-24T08:47:26;11.00;;;4.10;;
48945;SDS011;34999;50.940;3.998;2023-04-24T08:49:56;12.03;;;4.13;;
48945;SDS011;34999;50.940;3.998;2023-04-24T08:52:26;11.90;;;3.90;;
48945;SDS011;34999;50.940;3.998;2023-04-24T08:54:55;12.00;;;4.20;;
48945;SDS011;34999;50.940;3.998;2023-04-24T08:57:24;8.30;;;4.07;;
48945;SDS011;34999;50.940;3.998;2023-04-24T08:59:53;10.40;;;5.03;;
48945;SDS011;34999;50.940;3.998;2023-04-24T09:02:23;11.47;;;4.33;;
48945;SDS011;34999;50.940;3.998;2023-04-24T09:04:53;8.03;;;4.37;;
48945;SDS011;34999;50.940;3.998;2023-04-24T09:07:24;10.47;;;4.90;;
48945;SDS011;34999;50.940;3.998;2023-04-24T09:09:54;6.63;;;3.90;;
48945;SDS011;34999;50.940;3.998;2023-04-24T09:12:23;10.30;;;4.37;;
48945;SDS011;34999;50.940;3.998;2023-04-24T09:14:51;7.60;;;3.97;;
48945;SDS011;34999;50.940;3.998;2023-04-24T09:17:20;7.07;;;3.90;;
48945;SDS011;34999;50.940;3.998;2023-04-24T09:19:50;10.30;;;4.47;;
48945;SDS011;34999;50.940;3.998;2023-04-24T09:22:20;8.63;;;4.20;;
48945;SDS011;34999;50.940;3.998;2023-04-24T09:24:59;7.83;;;3.83;;
48945;SDS011;34999;50.940;3.998;2023-04-24T09:27:29;7.40;;;4.23;;
48945;SDS011;34999;50.940;3.998;2023-04-24T09:29:57;6.83;;;3.57;;
48945;SDS011;34999;50.940;3.998;2023-04-24T09:32:26;4.77;;;3.30;;
48945;SDS011;34999;50.940;3.998;2023-04-24T09:35:06;6.13;;;3.87;;
48945;SDS011;34999;50.940;3.998;2023-04-24T09:37:40;13.40;;;4.53;;
48945;SDS011;34999;50.940;3.998;2023-04-24T09:40:14;10.43;;;3.77;;
48945;SDS011;34999;50.940;3.998;2023-04-24T09:42:44;6.00;;;4.17;;
48945;SDS011;34999;50.940;3.998;2023-04-24T09:45:13;6.40;;;3.90;;
48945;SDS011;34999;50.940;3.998;2023-04-24T09:47:41;8.40;;;4.57;;
48945;SDS011;34999;50.940;3.998;2023-04-24T09:50:11;9.47;;;4.70;;
48945;SDS011;34999;50.940;3.998;2023-04-24T09:52:46;6.53;;;3.83;;
48945;SDS011;34999;50.940;3.998;2023-04-24T09:55:24;9.30;;;4.40;;
48945;SDS011;34999;50.940;3.998;2023-04-24T09:57:53;8.97;;;4.20;;
48945;SDS011;34999;50.940;3.998;2023-04-24T10:00:22;9.47;;;4.63;;
48945;SDS011;34999;50.940;3.998;2023-04-24T10:02:56;8.70;;;4.30;;
48945;SDS011;34999;50.940;3.998;2023-04-24T10:05:28;7.97;;;4.20;;
48945;SDS011;34999;50.940;3.998;2023-04-24T10:08:03;6.13;;;4.40;;
48945;SDS011;34999;50.940;3.998;2023-04-24T10:10:33;6.67;;;4.60;;
48945;SDS011;34999;50.940;3.998;2023-04-24T10:13:07;6.73;;;4.77;;
48945;SDS011;34999;50.940;3.998;2023-04-24T10:15:36;10.70;;;4.40;;
48945;SDS011;34999;50.940;3.998;2023-04-24T10:18:05;5.87;;;4.40;;
48945;SDS011;34999;50.940;3.998;2023-04-24T10:20:34;5.63;;;3.90;;
48945;SDS011;34999;50.940;3.998;2023-04-24T10:23:05;7.03;;;4.03;;
48945;SDS011;34999;50.940;3.998;2023-04-24T10:25:34;4.17;;;3.80;;
48945;SDS011;34999;50.940;3.998;2023-04-24T10:28:04;6.00;;;3.93;;
48945;SDS011;34999;50.940;3.998;2023-04-24T10:30:36;6.30;;;4.00;;
48945;SDS011;34999;50.940;3.998;2023-04-24T10:33:05;7.97;;;3.80;;
48945;SDS011;34999;50.940;3.998;2023-04-24T10:35:38;8.87;;;4.37;;
48945;SDS011;34999;50.940;3.998;2023-04-24T10:38:11;6.77;;;4.00;;
48945;SDS011;34999;50.940;3.998;2023-04-24T10:40:41;5.47;;;4.20;;
48945;SDS011;34999;50.940;3.998;2023-04-24T10:43:10;11.13;;;4.47;;
48945;SDS011;34999;50.940;3.998;2023-04-24T10:45:59;8.33;;;4.93;;
48945;SDS011;34999;50.940;3.998;2023-04-24T10:48:29;9.57;;;4.97;;
48945;SDS011;34999;50.940;3.998;2023-04-24T10:50:58;7.83;;;4.53;;
48945;SDS011;34999;50.940;3.998;2023-04-24T10:53:29;7.73;;;4.37;;
48945;SDS011;34999;50.940;3.998;2023-04-24T10:55:58;9.40;;;4.40;;
48945;SDS011;34999;50.940;3.998;2023-04-24T10:58:40;9.50;;;5.17;;
48945;SDS011;34999;50.940;3.998;2023-04-24T11:01:22;8.60;;;5.33;;
48945;SDS011;34999;50.940;3.998;2023-04-24T11:03:54;10.73;;;5.23;;
48945;SDS011;34999;50.940;3.998;2023-04-24T11:06:30;10.73;;;5.57;;
48945;SDS011;34999;50.940;3.998;2023-04-24T11:09:05;8.20;;;5.63;;
48945;SDS011;34999;50.940;3.998;2023-04-24T11:11:35;7.67;;;4.87;;
48945;SDS011;34999;50.940;3.998;2023-04-24T11:14:09;9.07;;;5.20;;
48945;SDS011;34999;50.940;3.998;2023-04-24T11:16:44;7.63;;;4.70;;
48945;SDS011;34999;50.940;3.998;2023-04-24T11:19:18;9.57;;;5.20;;
48945;SDS011;34999;50.940;3.998;2023-04-24T11:21:55;6.23;;;4.97;;
48945;SDS011;34999;50.940;3.998;2023-04-24T11:24:29;11.20;;;5.50;;
48945;SDS011;34999;50.940;3.998;2023-04-24T11:27:04;8.23;;;5.10;;
48945;SDS011;34999;50.940;3.998;2023-04-24T11:29:45;9.63;;;5.47;;
48945;SDS011;34999;50.940;3.998;2023-04-24T11:32:26;9.17;;;5.07;;
48945;SDS011;34999;50.940;3.998;2023-04-24T11:34:56;7.77;;;5.27;;
48945;SDS011;34999;50.940;3.998;2023-04-24T11:37:26;9.03;;;5.13;;
48945;SDS011;34999;50.940;3.998;2023-04-24T11:39:59;8.77;;;5.57;;
48945;SDS011;34999;50.940;3.998;2023-04-24T11:42:28;8.33;;;5.53;;
48945;SDS011;34999;50.940;3.998;2023-04-24T11:45:01;7.80;;;5.73;;
48945;SDS011;34999;50.940;3.998;2023-04-24T11:47:31;7.13;;;5.47;;
48945;SDS011;34999;50.940;3.998;2023-04-24T11:50:00;9.90;;;5.83;;
48945;SDS011;34999;50.940;3.998;2023-04-24T11:52:29;7.03;;;5.30;;
48945;SDS011;34999;50.940;3.998;2023-04-24T11:54:59;7.00;;;5.43;;
48945;SDS011;34999;50.940;3.998;2023-04-24T11:57:28;7.93;;;5.30;;
48945;SDS011;34999;50.940;3.998;2023-04-24T12:00:00;6.57;;;5.20;;
48945;SDS011;34999;50.940;3.998;2023-04-24T12:02:30;9.63;;;5.53;;
48945;SDS011;34999;50.940;3.998;2023-04-24T12:04:59;7.07;;;4.90;;
48945;SDS011;34999;50.940;3.998;2023-04-24T12:07:28;8.10;;;4.67;;
48945;SDS011;34999;50.940;3.998;2023-04-24T12:09:57;7.50;;;5.00;;
48945;SDS011;34999;50.940;3.998;2023-04-24T12:12:28;5.20;;;4.80;;
48945;SDS011;34999;50.940;3.998;2023-04-24T12:14:57;6.17;;;4.70;;
48945;SDS011;34999;50.940;3.998;2023-04-24T12:17:27;4.47;;;4.00;;
48945;SDS011;34999;50.940;3.998;2023-04-24T12:19:57;5.20;;;3.67;;
48945;SDS011;34999;50.940;3.998;2023-04-24T12:22:27;5.03;;;3.90;;
48945;SDS011;34999;50.940;3.998;2023-04-24T12:25:00;12.23;;;3.73;;
48945;SDS011;34999;50.940;3.998;2023-04-24T12:27:32;5.97;;;3.70;;
48945;SDS011;34999;50.940;3.998;2023-04-24T12:30:01;5.83;;;3.57;;
48945;SDS011;34999;50.940;3.998;2023-04-24T12:32:34;4.47;;;3.40;;
48945;SDS011;34999;50.940;3.998;2023-04-24T12:35:08;6.13;;;3.47;;
48945;SDS011;34999;50.940;3.998;2023-04-24T12:37:37;3.90;;;3.00;;
48945;SDS011;34999;50.940;3.998;2023-04-24T12:40:07;4.77;;;3.27;;
48945;SDS011;34999;50.940;3.998;2023-04-24T12:42:42;3.20;;;2.90;;
48945;SDS011;34999;50.940;3.998;2023-04-24T12:45:11;3.47;;;3.13;;
48945;SDS011;34999;50.940;3.998;2023-04-24T12:47:41;6.17;;;3.13;;
48945;SDS011;34999;50.940;3.998;2023-04-24T12:50:11;6.10;;;3.17;;
48945;SDS011;34999;50.940;3.998;2023-04-24T12:52:41;5.40;;;3.27;;
48945;SDS011;34999;50.940;3.998;2023-04-24T12:55:09;5.23;;;3.07;;
48945;SDS011;34999;50.940;3.998;2023-04-24T12:57:40;4.37;;;2.80;;
48945;SDS011;34999;50.940;3.998;2023-04-24T13:00:08;3.43;;;2.80;;
48945;SDS011;34999;50.940;3.998;2023-04-24T13:02:38;6.07;;;2.87;;
48945;SDS011;34999;50.940;3.998;2023-04-24T13:05:07;3.87;;;2.93;;
48945;SDS011;34999;50.940;3.998;2023-04-24T13:07:38;2.60;;;2.47;;
48945;SDS011;34999;50.940;3.998;2023-04-24T13:10:06;2.73;;;2.50;;
48945;SDS011;34999;50.940;3.998;2023-04-24T13:12:35;3.43;;;2.57;;
48945;SDS011;34999;50.940;3.998;2023-04-24T13:15:07;3.67;;;2.50;;
48945;SDS011;34999;50.940;3.998;2023-04-24T13:17:36;2.20;;;1.90;;
48945;SDS011;34999;50.940;3.998;2023-04-24T13:20:05;2.77;;;1.90;;
48945;SDS011;34999;50.940;3.998;2023-04-24T13:22:35;3.47;;;1.80;;
48945;SDS011;34999;50.940;3.998;2023-04-24T13:25:04;2.33;;;2.13;;
48945;SDS011;34999;50.940;3.998;2023-04-24T13:27:35;2.77;;;2.30;;
48945;SDS011;34999;50.940;3.998;2023-04-24T13:30:07;2.67;;;1.87;;
48945;SDS011;34999;50.940;3.998;2023-04-24T13:32:36;1.90;;;1.80;;
48945;SDS011;34999;50.940;3.998;2023-04-24T13:35:05;2.23;;;1.90;;
48945;SDS011;34999;50.940;3.998;2023-04-24T13:37:34;4.37;;;2.10;;
48945;SDS011;34999;50.940;3.998;2023-04-24T13:40:02;3.20;;;2.13;;
48945;SDS011;34999;50.940;3.998;2023-04-24T13:42:33;2.40;;;2.10;;
48945;SDS011;34999;50.940;3.998;2023-04-24T13:45:02;4.00;;;2.37;;
48945;SDS011;34999;50.940;3.998;2023-04-24T13:47:51;3.43;;;2.30;;
48945;SDS011;34999;50.940;3.998;2023-04-24T13:50:20;3.40;;;2.40;;
48945;SDS011;34999;50.940;3.998;2023-04-24T13:52:49;2.60;;;2.30;;
48945;SDS011;34999;50.940;3.998;2023-04-24T13:55:17;2.60;;;2.20;;
48945;SDS011;34999;50.940;3.998;2023-04-24T13:57:45;2.17;;;2.00;;
48945;SDS011;34999;50.940;3.998;2023-04-24T14:00:14;3.53;;;1.90;;
48945;SDS011;34999;50.940;3.998;2023-04-24T14:02:43;4.20;;;2.10;;
48945;SDS011;34999;50.940;3.998;2023-04-24T14:05:13;2.90;;;1.83;;
48945;SDS011;34999;50.940;3.998;2023-04-24T14:07:42;4.00;;;2.00;;
48945;SDS011;34999;50.940;3.998;2023-04-24T14:10:10;3.13;;;2.00;;
48945;SDS011;34999;50.940;3.998;2023-04-24T14:12:38;2.50;;;2.10;;
48945;SDS011;34999;50.940;3.998;2023-04-24T14:15:07;2.90;;;2.10;;
48945;SDS011;34999;50.940;3.998;2023-04-24T14:17:36;2.87;;;1.97;;
48945;SDS011;34999;50.940;3.998;2023-04-24T14:20:05;1.80;;;1.70;;
48945;SDS011;34999;50.940;3.998;2023-04-24T14:22:36;1.70;;;1.60;;
48945;SDS011;34999;50.940;3.998;2023-04-24T14:25:05;1.80;;;1.70;;
48945;SDS011;34999;50.940;3.998;2023-04-24T14:27:34;4.07;;;1.83;;
48945;SDS011;34999;50.940;3.998;2023-04-24T14:30:02;2.87;;;1.70;;
48945;SDS011;34999;50.940;3.998;2023-04-24T14:32:31;2.03;;;1.50;;
48945;SDS011;34999;50.940;3.998;2023-04-24T14:34:59;1.60;;;1.50;;
48945;SDS011;34999;50.940;3.998;2023-04-24T14:37:27;1.97;;;1.77;;
48945;SDS011;34999;50.940;3.998;2023-04-24T14:39:57;2.43;;;1.50;;
48945;SDS011;34999;50.940;3.998;2023-04-24T14:42:33;3.23;;;1.90;;
48945;SDS011;34999;50.940;3.998;2023-04-24T14:45:01;3.73;;;1.90;;
48945;SDS011;34999;50.940;3.998;2023-04-24T14:47:30;7.97;;;1.90;;
48945;SDS011;34999;50.940;3.998;2023-04-24T14:49:58;6.73;;;1.70;;